createdAt,value
2018-01-12T00:01:38.934Z,2.50
2018-01-12T00:04:06.584Z,2.40
2018-01-12T00:06:34.226Z,2.40
2018-01-12T00:09:01.944Z,2.40
2018-01-12T00:11:29.561Z,2.50
2018-01-12T00:13:57.289Z,2.40
2018-01-12T00:16:25.707Z,2.40
2018-01-12T00:18:53.320Z,2.40
2018-01-12T00:21:21.957Z,2.40
2018-01-12T00:23:49.546Z,2.30
2018-01-12T00:26:17.381Z,2.30
2018-01-12T00:28:45.064Z,2.40
2018-01-12T00:31:12.687Z,2.30
2018-01-12T00:33:40.461Z,2.30
2018-01-12T00:36:08.076Z,2.30
2018-01-12T00:38:36.601Z,2.40
2018-01-12T00:41:04.228Z,2.40
2018-01-12T00:43:31.818Z,2.50
2018-01-12T00:45:59.414Z,2.60
2018-01-12T00:48:27.809Z,2.30
2018-01-12T00:50:56.168Z,2.30
2018-01-12T00:53:24.526Z,2.30
2018-01-12T00:55:52.190Z,2.20
2018-01-12T00:58:19.929Z,2.30
2018-01-12T01:00:47.589Z,2.40
2018-01-12T01:03:15.192Z,2.50
2018-01-12T01:05:43.546Z,2.70
2018-01-12T01:08:11.333Z,2.70
2018-01-12T01:10:39.712Z,2.80
2018-01-12T01:13:08.086Z,2.80
2018-01-12T01:15:36.624Z,2.70
2018-01-12T01:18:04.213Z,2.60
2018-01-12T01:20:32.005Z,2.70
2018-01-12T01:22:59.729Z,2.50
2018-01-12T01:25:27.322Z,2.60
2018-01-12T01:27:55.671Z,2.70
2018-01-12T01:30:23.666Z,2.70
2018-01-12T01:32:52.060Z,2.80
2018-01-12T01:35:19.714Z,2.70
2018-01-12T01:37:47.344Z,2.70
2018-01-12T01:40:14.959Z,2.90
2018-01-12T01:42:42.689Z,2.90
2018-01-12T01:45:10.446Z,3.00
2018-01-12T01:47:38.811Z,2.80
2018-01-12T01:50:07.246Z,2.80
2018-01-12T01:52:34.849Z,2.70
2018-01-12T01:55:03.277Z,2.60
2018-01-12T01:57:31.076Z,2.60
2018-01-12T01:59:58.680Z,2.60
2018-01-12T02:02:26.266Z,2.70
2018-01-12T02:04:53.866Z,2.80
2018-01-12T02:07:22.250Z,2.80
2018-01-12T02:09:50.628Z,2.80
2018-01-12T02:12:19.077Z,2.70
2018-01-12T02:14:46.702Z,2.70
2018-01-12T02:17:14.307Z,2.80
2018-01-12T02:19:41.921Z,2.80
2018-01-12T02:22:09.577Z,2.90
2018-01-12T02:24:37.221Z,2.90
2018-01-12T02:27:04.814Z,2.80
2018-01-12T02:29:32.440Z,2.80
2018-01-12T02:32:00.075Z,2.70
2018-01-12T02:34:28.558Z,2.60
2018-01-12T02:36:57.009Z,2.50
2018-01-12T02:39:24.751Z,2.50
2018-01-12T02:41:52.356Z,2.60
2018-01-12T02:44:20.744Z,2.70
2018-01-12T02:46:48.558Z,2.60
2018-01-12T02:49:16.179Z,2.80
2018-01-12T02:51:43.893Z,2.70
2018-01-12T02:54:11.554Z,2.60
2018-01-12T02:56:39.294Z,2.50
2018-01-12T02:59:06.953Z,2.40
2018-01-12T03:01:34.745Z,2.40
2018-01-12T03:04:02.381Z,2.50
2018-01-12T03:06:30.023Z,2.50
2018-01-12T03:08:57.626Z,2.60
2018-01-12T03:11:25.278Z,2.50
2018-01-12T03:13:52.880Z,2.40
2018-01-12T03:16:20.499Z,2.40
2018-01-12T03:18:48.207Z,2.30
2018-01-12T03:21:15.812Z,2.30
2018-01-12T03:23:43.510Z,2.30
2018-01-12T03:26:11.884Z,2.30
2018-01-12T03:28:40.338Z,2.50
2018-01-12T03:31:07.935Z,2.40
2018-01-12T03:33:35.596Z,2.70
2018-01-12T03:36:03.322Z,2.80
2018-01-12T03:38:30.998Z,2.70
2018-01-12T03:40:59.360Z,2.60
2018-01-12T03:43:26.964Z,2.50
2018-01-12T03:45:54.619Z,2.50
2018-01-12T03:48:22.349Z,2.30
2018-01-12T03:50:50.084Z,2.40
2018-01-12T03:53:17.717Z,2.50
2018-01-12T03:55:45.316Z,2.60
2018-01-12T03:58:12.916Z,2.60
2018-01-12T04:00:40.514Z,2.70
2018-01-12T04:03:08.225Z,2.60
2018-01-12T04:05:36.598Z,2.50
2018-01-12T04:08:04.956Z,2.50
2018-01-12T04:10:32.787Z,2.50
2018-01-12T04:13:00.398Z,2.70
2018-01-12T04:15:28.762Z,2.60
2018-01-12T04:17:57.150Z,2.60
2018-01-12T04:20:26.156Z,2.80
2018-01-12T04:22:53.796Z,2.80
2018-01-12T04:25:22.333Z,2.70
2018-01-12T04:27:50.039Z,2.60
2018-01-12T04:30:18.498Z,2.70
2018-01-12T04:32:46.173Z,2.60
2018-01-12T04:35:13.804Z,2.80
2018-01-12T04:37:41.522Z,2.90
2018-01-12T04:40:09.237Z,3.00
2018-01-12T04:42:37.001Z,3.00
2018-01-12T04:45:04.656Z,2.90
2018-01-12T04:47:32.275Z,2.90
2018-01-12T04:49:59.981Z,2.80
2018-01-12T04:52:27.723Z,2.90
2018-01-12T04:54:55.556Z,2.90
2018-01-12T04:57:23.152Z,3.00
2018-01-12T04:59:50.780Z,3.30
2018-01-12T05:02:18.469Z,3.40
2018-01-12T05:04:46.050Z,3.40
2018-01-12T05:07:13.730Z,3.40
2018-01-12T05:09:42.092Z,3.30
2018-01-12T05:12:09.682Z,3.30
2018-01-12T05:14:37.794Z,3.30
2018-01-12T05:17:05.437Z,3.20
2018-01-12T05:19:33.062Z,3.00
2018-01-12T05:22:01.483Z,3.10
2018-01-12T05:24:29.251Z,3.10
2018-01-12T05:26:56.864Z,3.30
2018-01-12T05:29:25.393Z,3.20
2018-01-12T05:31:53.157Z,3.20
2018-01-12T05:34:20.744Z,3.10
2018-01-12T05:36:48.474Z,3.10
2018-01-12T05:39:16.338Z,3.10
2018-01-12T05:41:43.997Z,2.90
2018-01-12T05:44:11.659Z,3.00
2018-01-12T05:46:39.288Z,3.10
2018-01-12T05:49:06.979Z,2.90
2018-01-12T05:51:34.572Z,3.10
2018-01-12T05:54:02.211Z,3.20
2018-01-12T05:56:29.960Z,3.20
2018-01-12T05:58:57.556Z,3.10
2018-01-12T06:01:37.161Z,3.20
2018-01-12T06:04:17.722Z,2.90
2018-01-12T06:06:45.428Z,2.90
2018-01-12T06:09:13.788Z,3.00
2018-01-12T06:11:41.551Z,2.90
2018-01-12T06:14:09.227Z,3.10
2018-01-12T06:16:37.661Z,3.30
2018-01-12T06:19:05.372Z,3.20
2018-01-12T06:21:33.903Z,3.00
2018-01-12T06:24:01.718Z,3.00
2018-01-12T06:26:30.269Z,2.80
2018-01-12T06:28:57.876Z,2.80
2018-01-12T06:31:25.533Z,3.10
2018-01-12T06:33:53.331Z,2.90
2018-01-12T06:36:21.121Z,2.70
2018-01-12T06:38:50.257Z,2.90
2018-01-12T06:41:17.916Z,2.90
2018-01-12T06:43:45.713Z,2.90
2018-01-12T06:46:13.316Z,3.00
2018-01-12T06:48:41.667Z,3.00
2018-01-12T06:51:09.275Z,3.00
2018-01-12T06:53:36.858Z,2.90
2018-01-12T06:56:04.833Z,2.90
2018-01-12T06:58:32.422Z,2.90
2018-01-12T07:01:00.029Z,2.70
2018-01-12T07:03:27.674Z,2.70
2018-01-12T07:05:55.365Z,2.70
2018-01-12T07:08:23.065Z,2.60
2018-01-12T07:10:50.829Z,2.80
2018-01-12T07:13:18.439Z,2.80
2018-01-12T07:15:46.081Z,2.90
2018-01-12T07:18:13.870Z,2.90
2018-01-12T07:20:53.331Z,2.80
2018-01-12T07:23:32.614Z,2.90
2018-01-12T07:26:00.353Z,3.00
2018-01-12T07:28:28.788Z,2.80
2018-01-12T07:30:56.412Z,2.80
2018-01-12T07:33:24.155Z,3.00
2018-01-12T07:35:52.735Z,3.00
2018-01-12T07:38:21.264Z,3.10
2018-01-12T07:40:48.930Z,3.10
2018-01-12T07:43:16.538Z,3.00
2018-01-12T07:45:44.989Z,2.90
2018-01-12T07:48:12.936Z,2.90
2018-01-12T07:50:40.595Z,3.00
2018-01-12T07:53:14.502Z,2.80
2018-01-12T07:55:42.095Z,2.90
2018-01-12T07:58:09.801Z,3.00
2018-01-12T08:00:43.216Z,3.00
2018-01-12T08:03:10.864Z,3.20
2018-01-12T08:05:38.497Z,3.10
2018-01-12T08:08:06.948Z,3.20
2018-01-12T08:10:34.685Z,3.10
2018-01-12T08:13:02.498Z,3.10
2018-01-12T08:15:30.909Z,3.20
2018-01-12T08:17:58.785Z,3.20
2018-01-12T08:20:26.753Z,3.10
2018-01-12T08:22:54.444Z,3.10
2018-01-12T08:25:22.196Z,3.20
2018-01-12T08:27:49.884Z,3.10
2018-01-12T08:30:18.308Z,2.70
2018-01-12T08:32:45.941Z,2.70
2018-01-12T08:35:13.634Z,3.00
2018-01-12T08:37:41.398Z,2.90
2018-01-12T08:40:09.160Z,3.00
2018-01-12T08:42:39.439Z,3.00
2018-01-12T08:45:20.262Z,3.10
2018-01-12T08:47:48.046Z,3.00
2018-01-12T08:50:15.808Z,3.10
2018-01-12T08:52:44.282Z,3.00
2018-01-12T08:55:11.932Z,3.00
2018-01-12T08:57:39.561Z,3.10
2018-01-12T09:00:07.154Z,2.90
2018-01-12T09:02:34.813Z,2.90
2018-01-12T09:05:02.551Z,3.00
2018-01-12T09:07:30.318Z,2.80
2018-01-12T09:09:57.980Z,3.00
2018-01-12T09:12:25.692Z,3.00
2018-01-12T09:14:54.222Z,3.00
2018-01-12T09:17:30.949Z,3.00
2018-01-12T09:20:11.070Z,3.10
2018-01-12T09:22:45.391Z,3.00
2018-01-12T09:25:26.770Z,3.00
2018-01-12T09:27:54.661Z,2.90
2018-01-12T09:30:23.124Z,3.40
2018-01-12T09:32:50.742Z,3.30
2018-01-12T09:35:18.406Z,3.40
2018-01-12T09:37:46.044Z,3.30
2018-01-12T09:43:13.416Z,3.40
2018-01-12T09:45:41.022Z,3.40
2018-01-12T09:48:20.492Z,3.60
2018-01-12T09:50:48.917Z,3.80
2018-01-12T09:53:16.516Z,3.80
2018-01-12T09:55:44.336Z,3.90
2018-01-12T09:58:11.953Z,3.60
2018-01-12T10:01:02.134Z,3.70
2018-01-12T10:03:30.658Z,4.10
2018-01-12T10:05:58.460Z,4.00
2018-01-12T10:08:26.222Z,4.10
2018-01-12T10:10:53.856Z,4.30
2018-01-12T10:13:21.451Z,4.50
2018-01-12T10:15:49.830Z,3.90
2018-01-12T10:18:35.192Z,3.90
2018-01-12T10:24:03.220Z,4.00
2018-01-12T10:26:30.848Z,4.00
2018-01-12T10:29:07.374Z,4.20
2018-01-12T10:31:46.848Z,4.10
2018-01-12T10:34:26.525Z,4.30
2018-01-12T10:36:55.237Z,4.50
2018-01-12T10:39:22.923Z,4.50
2018-01-12T10:42:05.256Z,4.20
2018-01-12T10:44:33.793Z,4.20
2018-01-12T10:47:16.182Z,4.20
2018-01-12T10:49:55.863Z,4.10
2018-01-12T10:52:39.157Z,4.10
2018-01-12T10:55:06.743Z,4.10
2018-01-12T10:57:34.378Z,4.20
2018-01-12T11:00:01.961Z,4.30
2018-01-12T11:02:29.742Z,4.20
2018-01-12T11:04:58.138Z,5.40
2018-01-12T11:07:25.777Z,5.30
2018-01-12T11:09:54.241Z,5.70
2018-01-12T11:12:22.007Z,5.60
2018-01-12T11:14:49.606Z,5.90
2018-01-12T11:17:17.294Z,6.30
2018-01-12T11:19:44.960Z,6.00
2018-01-12T11:22:12.602Z,5.80
2018-01-12T11:24:40.382Z,6.10
2018-01-12T11:27:08.093Z,7.00
2018-01-12T11:29:36.513Z,7.20
2018-01-12T11:32:04.098Z,7.20
2018-01-12T11:34:31.779Z,7.50
2018-01-12T11:37:00.191Z,7.60
2018-01-12T11:39:27.826Z,7.50
2018-01-12T11:41:55.490Z,7.10
2018-01-12T11:44:24.021Z,7.00
2018-01-12T11:46:51.913Z,7.00
2018-01-12T11:49:19.508Z,6.30
2018-01-12T11:51:47.133Z,6.00
2018-01-12T11:54:14.917Z,5.80
2018-01-12T11:56:43.317Z,6.50
2018-01-12T11:59:10.987Z,6.40
2018-01-12T12:01:38.832Z,7.40
2018-01-12T12:04:06.628Z,7.10
2018-01-12T12:06:34.276Z,6.30
2018-01-12T12:09:01.945Z,6.10
2018-01-12T12:11:29.664Z,6.00
2018-01-12T12:13:58.089Z,6.70
2018-01-12T12:16:25.694Z,6.60
2018-01-12T12:18:54.254Z,6.10
2018-01-12T12:21:21.877Z,6.00
2018-01-12T12:23:49.472Z,6.40
2018-01-12T12:26:17.098Z,6.50
2018-01-12T12:28:44.682Z,6.60
2018-01-12T12:31:12.323Z,6.70
2018-01-12T12:33:40.058Z,6.10
2018-01-12T12:36:07.725Z,5.50
2018-01-12T12:38:35.406Z,5.40
2018-01-12T12:41:02.996Z,5.20
2018-01-12T12:43:30.598Z,5.20
2018-01-12T12:45:58.226Z,5.10
2018-01-12T12:48:26.765Z,5.20
2018-01-12T12:50:54.365Z,5.20
2018-01-12T12:53:22.752Z,5.20
2018-01-12T12:55:51.181Z,5.40
2018-01-12T12:58:18.814Z,5.30
2018-01-12T13:00:46.426Z,5.40
2018-01-12T13:03:14.230Z,5.20
2018-01-12T13:05:41.928Z,5.30
2018-01-12T13:08:19.603Z,5.00
2018-01-12T13:10:47.272Z,4.90
2018-01-12T13:13:14.887Z,5.10
2018-01-12T13:15:43.352Z,4.90
2018-01-12T13:18:10.974Z,4.80
2018-01-12T13:20:38.637Z,5.00
2018-01-12T13:23:06.400Z,5.10
2018-01-12T13:25:34.128Z,4.90
2018-01-12T13:28:01.719Z,4.90
2018-01-12T13:30:29.578Z,4.90
2018-01-12T13:32:57.184Z,4.80
2018-01-12T13:35:24.957Z,5.00
2018-01-12T13:37:53.515Z,5.30
2018-01-12T13:40:21.194Z,5.20
2018-01-12T13:42:49.662Z,5.50
2018-01-12T13:45:17.278Z,5.40
2018-01-12T13:47:45.049Z,5.20
2018-01-12T13:50:12.708Z,4.90
2018-01-12T13:52:40.341Z,5.00
2018-01-12T13:55:08.029Z,5.00
2018-01-12T13:57:35.685Z,5.10
2018-01-12T14:00:03.377Z,5.30
2018-01-12T14:02:30.984Z,5.10
2018-01-12T14:04:58.876Z,5.00
2018-01-12T14:07:26.537Z,4.90
2018-01-12T14:09:54.298Z,4.90
2018-01-12T14:12:21.953Z,4.80
2018-01-12T14:14:49.618Z,4.80
2018-01-12T14:17:17.301Z,4.80
2018-01-12T14:19:44.886Z,4.70
2018-01-12T14:22:13.428Z,4.80
2018-01-12T14:24:41.060Z,4.70
2018-01-12T14:27:08.642Z,4.80
2018-01-12T14:29:36.250Z,4.90
2018-01-12T14:32:04.614Z,4.80
2018-01-12T14:34:32.437Z,4.80
2018-01-12T14:37:00.302Z,4.70
2018-01-12T14:39:28.273Z,4.80
2018-01-12T14:41:55.914Z,4.80
2018-01-12T14:44:23.596Z,5.00
2018-01-12T14:46:51.139Z,4.90
2018-01-12T14:49:18.843Z,4.70
2018-01-12T14:51:46.490Z,4.70
2018-01-12T14:54:14.222Z,4.80
2018-01-12T14:56:42.128Z,4.80
2018-01-12T14:59:09.721Z,4.50
2018-01-12T15:01:37.375Z,4.30
2018-01-12T15:04:05.132Z,4.40
2018-01-12T15:06:33.561Z,4.60
2018-01-12T15:09:01.209Z,4.60
2018-01-12T15:11:29.082Z,4.40
2018-01-12T15:13:56.730Z,4.30
2018-01-12T15:16:24.404Z,4.20
2018-01-12T15:18:52.220Z,4.20
2018-01-12T15:21:20.626Z,4.10
2018-01-12T15:23:48.268Z,4.10
2018-01-12T15:26:15.894Z,4.20
2018-01-12T15:28:43.733Z,4.30
2018-01-12T15:31:11.372Z,4.20
2018-01-12T15:33:39.255Z,4.30
2018-01-12T15:36:06.895Z,4.20
2018-01-12T15:38:34.572Z,4.30
2018-01-12T15:41:02.366Z,4.40
2018-01-12T15:43:30.230Z,4.40
2018-01-12T15:45:58.578Z,4.40
2018-01-12T15:48:26.162Z,4.30
2018-01-12T15:50:53.795Z,4.50
2018-01-12T15:53:21.662Z,4.50
2018-01-12T15:55:49.377Z,4.40
2018-01-12T15:58:18.007Z,4.20
2018-01-12T16:00:45.815Z,4.20
2018-01-12T16:03:14.240Z,4.30
2018-01-12T16:05:41.836Z,4.30
2018-01-12T16:08:09.486Z,4.10
2018-01-12T16:10:37.101Z,4.10
2018-01-12T16:13:04.819Z,4.20
2018-01-12T16:15:33.193Z,4.20
2018-01-12T16:18:01.027Z,4.30
2018-01-12T16:20:28.638Z,4.30
2018-01-12T16:22:57.166Z,4.10
2018-01-12T16:25:24.793Z,4.00
2018-01-12T16:27:52.629Z,4.20
2018-01-12T16:30:20.994Z,4.20
2018-01-12T16:32:48.592Z,4.10
2018-01-12T16:35:16.216Z,4.20
2018-01-12T16:37:44.681Z,4.20
2018-01-12T16:40:12.301Z,4.20
2018-01-12T16:42:39.987Z,4.10
2018-01-12T16:45:07.598Z,4.10
2018-01-12T16:47:35.959Z,4.30
2018-01-12T16:50:03.576Z,4.20
2018-01-12T16:52:31.181Z,4.30
2018-01-12T16:54:59.543Z,4.20
2018-01-12T16:57:27.256Z,4.20
2018-01-12T16:59:54.852Z,4.20
2018-01-12T17:02:22.774Z,4.30
2018-01-12T17:04:50.839Z,4.20
2018-01-12T17:07:18.472Z,4.10
2018-01-12T17:09:46.193Z,3.90
2018-01-12T17:12:13.956Z,3.70
2018-01-12T17:14:41.570Z,3.80
2018-01-12T17:17:10.095Z,3.80
2018-01-12T17:19:37.712Z,3.70
2018-01-12T17:22:06.136Z,3.90
2018-01-12T17:24:33.751Z,3.90
2018-01-12T17:27:01.352Z,4.00
2018-01-12T17:29:28.981Z,4.10
2018-01-12T17:31:56.669Z,3.90
2018-01-12T17:34:24.278Z,3.80
2018-01-12T17:36:52.630Z,4.90
2018-01-12T17:39:20.355Z,4.80
2018-01-12T17:41:47.957Z,5.00
2018-01-12T17:44:15.681Z,5.10
2018-01-12T17:46:43.315Z,4.70
2018-01-12T17:49:10.915Z,4.20
2018-01-12T17:51:38.774Z,4.00
2018-01-12T17:54:06.408Z,3.90
2018-01-12T17:56:34.194Z,3.70
2018-01-12T17:59:01.924Z,3.70
2018-01-12T18:01:29.524Z,3.70
2018-01-12T18:03:57.331Z,3.70
2018-01-12T18:06:25.146Z,3.70
2018-01-12T18:08:52.774Z,3.60
2018-01-12T18:11:20.372Z,3.50
2018-01-12T18:13:48.026Z,3.40
2018-01-12T18:16:15.889Z,3.40
2018-01-12T18:18:43.569Z,3.30
2018-01-12T18:21:11.200Z,3.30
2018-01-12T18:23:39.086Z,3.30
2018-01-12T18:26:06.713Z,3.30
2018-01-12T18:28:34.302Z,3.20
2018-01-12T18:31:02.103Z,3.20
2018-01-12T18:33:30.634Z,3.30
2018-01-12T18:35:58.317Z,3.30
2018-01-12T18:38:26.081Z,3.30
2018-01-12T18:40:53.874Z,3.20
2018-01-12T18:43:22.350Z,3.30
2018-01-12T18:45:50.801Z,3.40
2018-01-12T18:48:18.513Z,3.30
2018-01-12T18:50:46.171Z,3.30
2018-01-12T18:53:13.776Z,3.40
2018-01-12T18:55:41.488Z,3.40
2018-01-12T18:58:09.114Z,3.50
2018-01-12T19:00:36.716Z,3.60
2018-01-12T19:03:04.298Z,3.50
2018-01-12T19:05:32.162Z,3.60
2018-01-12T19:07:59.788Z,3.40
2018-01-12T19:10:27.430Z,3.40
2018-01-12T19:12:55.854Z,3.30
2018-01-12T19:15:23.471Z,3.30
2018-01-12T19:17:52.006Z,3.40
2018-01-12T19:20:19.699Z,3.30
2018-01-12T19:22:47.315Z,3.50
2018-01-12T19:25:14.913Z,3.50
2018-01-12T19:27:42.694Z,3.50
2018-01-12T19:30:11.135Z,3.50
2018-01-12T19:32:38.783Z,3.50
2018-01-12T19:35:06.568Z,3.60
2018-01-12T19:37:34.165Z,3.40
2018-01-12T19:40:01.810Z,3.40
2018-01-12T19:42:29.498Z,3.30
2018-01-12T19:44:57.100Z,3.40
2018-01-12T19:47:24.946Z,3.60
2018-01-12T19:49:52.642Z,3.60
2018-01-12T19:52:20.328Z,3.70
2018-01-12T19:54:48.775Z,3.70
2018-01-12T19:57:16.541Z,3.60
2018-01-12T19:59:44.149Z,3.50
2018-01-12T20:02:11.860Z,3.40
2018-01-12T20:04:39.457Z,3.40
2018-01-12T20:07:07.197Z,3.40
2018-01-12T20:09:35.846Z,3.40
2018-01-12T20:12:04.289Z,3.40
2018-01-12T20:14:31.929Z,3.30
2018-01-12T20:17:00.379Z,3.50
2018-01-12T20:19:28.042Z,3.40
2018-01-12T20:21:55.626Z,3.40
2018-01-12T20:24:24.001Z,3.60
2018-01-12T20:26:52.632Z,3.40
2018-01-12T20:29:20.256Z,3.40
2018-01-12T20:31:47.927Z,3.40
2018-01-12T20:34:15.564Z,3.40
2018-01-12T20:36:44.079Z,3.40
2018-01-12T20:39:11.761Z,3.40
2018-01-12T20:41:39.434Z,3.30
2018-01-12T20:44:07.033Z,3.20
2018-01-12T20:46:35.584Z,3.40
2018-01-12T20:49:03.416Z,3.30
2018-01-12T20:51:31.057Z,3.30
2018-01-12T20:53:58.885Z,3.30
2018-01-12T20:56:27.305Z,3.40
2018-01-12T20:58:54.896Z,3.30
2018-01-12T21:01:22.566Z,3.40
2018-01-12T21:03:50.171Z,3.60
2018-01-12T21:06:17.958Z,3.60
2018-01-12T21:08:45.867Z,3.70
2018-01-12T21:11:14.404Z,3.40
2018-01-12T21:13:42.206Z,3.40
2018-01-12T21:16:09.810Z,3.40
2018-01-12T21:18:37.589Z,3.40
2018-01-12T21:21:05.267Z,3.40
2018-01-12T21:23:32.854Z,3.40
2018-01-12T21:26:01.388Z,3.40
2018-01-12T21:28:29.052Z,3.40
2018-01-12T21:30:56.689Z,3.30
2018-01-12T21:33:24.309Z,3.50
2018-01-12T21:35:52.713Z,3.40
2018-01-12T21:38:20.302Z,3.30
2018-01-12T21:40:47.905Z,3.40
2018-01-12T21:43:16.322Z,3.30
2018-01-12T21:45:44.108Z,3.20
2018-01-12T21:48:11.713Z,3.10
2018-01-12T21:50:40.252Z,3.00
2018-01-12T21:53:07.845Z,2.90
2018-01-12T21:55:36.198Z,3.30
2018-01-12T21:58:04.045Z,3.20
2018-01-12T22:00:31.910Z,3.30
2018-01-12T22:02:59.542Z,3.30
2018-01-12T22:05:27.204Z,3.30
2018-01-12T22:07:54.992Z,3.30
2018-01-12T22:10:23.418Z,3.30
2018-01-12T22:12:52.054Z,3.40
2018-01-12T22:15:19.849Z,3.30
2018-01-12T22:17:47.681Z,3.30
2018-01-12T22:20:15.346Z,3.40
2018-01-12T22:22:43.055Z,3.40
2018-01-12T22:25:11.461Z,3.50
2018-01-12T22:27:39.244Z,3.40
2018-01-12T22:30:06.858Z,3.40
2018-01-12T22:32:35.253Z,3.50
2018-01-12T22:35:03.012Z,3.50
2018-01-12T22:37:30.607Z,3.60
2018-01-12T22:39:58.358Z,3.70
2018-01-12T22:42:25.956Z,3.70
2018-01-12T22:44:53.548Z,3.80
2018-01-12T22:47:21.347Z,3.80
2018-01-12T22:49:48.945Z,3.70
2018-01-12T22:52:17.362Z,3.70
2018-01-12T22:54:44.971Z,3.70
2018-01-12T22:57:12.725Z,3.60
2018-01-12T22:59:40.323Z,3.50
2018-01-12T23:02:08.996Z,3.30
2018-01-12T23:04:37.528Z,3.30
2018-01-12T23:07:05.289Z,3.30
2018-01-12T23:09:33.098Z,3.40
2018-01-12T23:12:01.634Z,3.40
2018-01-12T23:14:29.233Z,3.40
2018-01-12T23:16:57.058Z,3.30
2018-01-12T23:19:25.054Z,3.20
2018-01-12T23:21:53.418Z,3.30
2018-01-12T23:24:21.206Z,3.20
2018-01-12T23:26:49.617Z,3.20
2018-01-12T23:29:27.649Z,3.20
2018-01-12T23:31:55.365Z,3.00
2018-01-12T23:34:23.917Z,3.00
2018-01-12T23:36:51.598Z,3.00
2018-01-12T23:39:20.062Z,3.30
2018-01-12T23:41:48.636Z,3.30
2018-01-12T23:44:16.263Z,3.20
2018-01-12T23:46:44.063Z,3.30
2018-01-12T23:49:11.705Z,3.30
2018-01-12T23:51:39.490Z,3.40
2018-01-12T23:54:07.099Z,3.30
2018-01-12T23:56:34.698Z,3.30
2018-01-12T23:59:02.404Z,3.30
